Pagina principale
METAR-TAF:

METAR-TAF

Aeroporti :

Base aerea di Sigonella

Sigonella, Italia

latitudine: 37-24N, longitudine: 014-55E, altezza: 22 m

Osservazione

Il bollettino è stato emesso 50 minuti fa, alle 03:55 UTC
Vento 10 kt da nord-ovest
Temperature 10°C
Umidità 100%
Pressione 1011 hPa
Visibilità 10 km o più
Nuvoloso ad un'altezza di 3500 ft
Nubi sparse ad un'altezza di 8000 ft
pioggia debole

METAR: LICZ 300355Z 31010KT 9999 -RA BKN035 SCT080 10/10 Q1011 RMK OVC VIS MIN 9999 WIND THR28 29010KT WIND THR10 31009KT A2987 BLU

Ora: 06:45 (04:45 UTC)

Previsione

Il bollettino è stato emesso 5 ore e 45 minuti fa, alle 23:00 UTC
Previsione valida dal 30 alle 00 UTC al 30 alle 24 UTC
Vento 4 kt da ovest
Visibilità 10 km o più
Nubi sparse ad un'altezza di 5000 ft
Temporaneamente
dal 30 alle 09 UTC al 30 alle 18 UTC
Poco nuvoloso ad un'altezza di 2000 ft
Nubi sparse ad un'altezza di 4000 ft
pioggia

TAF: LICZ 292300Z 3000/3024 28004KT 9999 SCT050 TEMPO 3009/3018 RA FEW020 SCT040

Osservazioni e previsioni meteorologiche di più di 4000 aeroporti (messaggi METAR e TAF).

Le stazioni disponibili sono rappresentate dai dischi gialli e rossi sulla carta.

Puntare il mouse per vedere il nome della stazione.

Clicca sopra per visualizzare le osservazioni e previsioni meteorologiche.

Per cambiare la mappa : fare clic sui pulsanti verdi con una croce nera per ingrandire, il pulsante verde con un trattino per diminuire, o sulla freccia verde per le mappe adiacenti.


METAR-TAF: